Time;durP1;ratioP1;P1;durP2;ratioP2;P2;SDS_P1;SDS_P2;PMS_P1;PMS_P2;Temp;Humidity;BMP_temperature;BMP_pressure;BME280_temperature;BME280_humidity;BME280_pressure;Samples;Min_cycle;Max_cycle;Signal;HPM_P1;HPM_P2
2023/01/20 00:01:11;;;;;;;9.20;7.00;;;;;;;;;;4968023;28;20047;-78
2023/01/20 00:03:39;;;;;;;10.00;6.45;;;;;;;;;;4969290;28;20031;-79
2023/01/20 00:06:08;;;;;;;14.23;7.57;;;;;;;;;;4967669;28;20046;-80
2023/01/20 00:08:35;;;;;;;12.38;7.70;;;;;;;;;;4965847;28;20090;-79
2023/01/20 00:11:06;;;;;;;11.35;7.40;;;;;;;;;;4967169;28;20098;-79
2023/01/20 00:13:35;;;;;;;13.10;8.15;;;;;;;;;;4966754;28;20047;-79
2023/01/20 00:16:03;;;;;;;12.68;9.23;;;;;;;;;;4969838;28;20046;-79
2023/01/20 00:18:30;;;;;;;11.50;8.55;;;;;;;;;;4973754;28;20080;-79
2023/01/20 00:21:16;;;;;;;13.07;8.60;;;;;;;;;;4974078;28;20054;-79
2023/01/20 00:23:44;;;;;;;12.05;7.78;;;;;;;;;;4968517;28;20046;-80
2023/01/20 00:26:16;;;;;;;9.63;7.55;;;;;;;;;;4973599;28;20058;-80
2023/01/20 00:28:44;;;;;;;10.10;6.85;;;;;;;;;;4976418;28;20452;-79
2023/01/20 00:31:19;;;;;;;10.10;6.43;;;;;;;;;;4971304;28;20039;-79
2023/01/20 00:33:47;;;;;;;14.30;7.50;;;;;;;;;;4971132;28;20042;-79
2023/01/20 00:36:15;;;;;;;10.23;7.10;;;;;;;;;;4969283;28;20035;-79
2023/01/20 00:38:42;;;;;;;7.03;5.78;;;;;;;;;;4972385;28;20042;-80
2023/01/20 00:41:10;;;;;;;9.40;7.03;;;;;;;;;;4978053;28;20129;-79
2023/01/20 00:43:38;;;;;;;7.07;6.10;;;;;;;;;;4981802;28;20082;-79
2023/01/20 00:46:06;;;;;;;8.38;6.10;;;;;;;;;;4979328;28;20047;-79
2023/01/20 00:48:34;;;;;;;10.25;6.85;;;;;;;;;;4971321;28;20131;-79
2023/01/20 00:51:02;;;;;;;9.80;6.15;;;;;;;;;;4971723;28;20047;-80
2023/01/20 00:53:29;;;;;;;10.15;9.05;;;;;;;;;;4968253;28;20149;-80
2023/01/20 00:55:57;;;;;;;11.05;6.97;;;;;;;;;;4968173;28;20053;-80
2023/01/20 00:58:24;;;;;;;8.57;6.57;;;;;;;;;;4970433;28;20050;-79
2023/01/20 01:00:52;;;;;;;11.18;6.38;;;;;;;;;;4973252;28;20045;-80
2023/01/20 01:03:20;;;;;;;7.95;5.90;;;;;;;;;;4971588;28;20049;-80
2023/01/20 01:05:48;;;;;;;8.35;7.30;;;;;;;;;;4970464;28;20053;-80
2023/01/20 01:08:16;;;;;;;12.35;9.35;;;;;;;;;;4971935;28;20054;-79
2023/01/20 01:10:43;;;;;;;18.30;9.40;;;;;;;;;;4974071;28;20105;-80
2023/01/20 01:13:11;;;;;;;10.38;6.82;;;;;;;;;;4969959;28;20054;-79
2023/01/20 01:15:38;;;;;;;12.98;7.70;;;;;;;;;;4969810;28;20051;-79
2023/01/20 01:18:06;;;;;;;11.80;7.10;;;;;;;;;;4973945;28;20173;-80
2023/01/20 01:20:33;;;;;;;10.75;6.50;;;;;;;;;;4975561;28;20043;-80
2023/01/20 01:23:01;;;;;;;7.80;5.45;;;;;;;;;;4973566;28;20047;-80
2023/01/20 01:25:28;;;;;;;9.00;6.80;;;;;;;;;;4972480;28;20050;-80
2023/01/20 01:27:56;;;;;;;13.00;7.68;;;;;;;;;;4971584;28;20050;-80
2023/01/20 01:30:24;;;;;;;8.88;6.50;;;;;;;;;;4967025;28;20061;-80
2023/01/20 01:32:51;;;;;;;9.23;6.53;;;;;;;;;;4967714;28;20324;-80
2023/01/20 01:35:18;;;;;;;8.43;6.40;;;;;;;;;;4962911;28;20055;-80
2023/01/20 01:37:46;;;;;;;9.82;6.50;;;;;;;;;;4968437;28;20049;-80
2023/01/20 01:40:13;;;;;;;9.85;7.80;;;;;;;;;;4963796;28;20050;-79
2023/01/20 01:42:41;;;;;;;11.02;7.50;;;;;;;;;;4962014;28;20046;-79
2023/01/20 01:45:12;;;;;;;9.77;6.97;;;;;;;;;;4961885;28;20049;-79
2023/01/20 01:47:48;;;;;;;10.60;7.57;;;;;;;;;;4965998;28;20051;-80
2023/01/20 01:50:41;;;;;;;9.38;7.13;;;;;;;;;;4969192;28;20384;-80
2023/01/20 01:53:09;;;;;;;14.48;7.80;;;;;;;;;;4932436;28;20062;-80
2023/01/20 01:55:38;;;;;;;10.95;6.85;;;;;;;;;;4962716;28;20054;-79
2023/01/20 01:58:08;;;;;;;11.20;7.40;;;;;;;;;;4968906;28;20035;-80
2023/01/20 02:00:36;;;;;;;7.47;4.82;;;;;;;;;;4965311;28;20077;-80
2023/01/20 02:03:05;;;;;;;10.40;6.70;;;;;;;;;;4965160;28;20157;-79
2023/01/20 02:05:33;;;;;;;19.52;17.67;;;;;;;;;;4961333;28;20492;-79
2023/01/20 02:08:00;;;;;;;6.72;5.40;;;;;;;;;;4967740;28;20480;-79
2023/01/20 02:10:28;;;;;;;14.98;12.55;;;;;;;;;;4965896;28;20591;-80
2023/01/20 02:13:03;;;;;;;9.98;6.90;;;;;;;;;;4971298;28;20049;-79
2023/01/20 02:15:38;;;;;;;7.13;5.97;;;;;;;;;;4967881;28;20063;-79
2023/01/20 02:18:21;;;;;;;11.25;9.88;;;;;;;;;;4973873;28;20055;-79
2023/01/20 02:20:54;;;;;;;15.38;6.35;;;;;;;;;;4965771;28;20073;-79
2023/01/20 02:23:51;;;;;;;7.85;6.43;;;;;;;;;;4966321;28;20047;-79
2023/01/20 02:26:42;;;;;;;10.10;7.13;;;;;;;;;;4939792;28;20160;-79
2023/01/20 02:29:20;;;;;;;7.35;5.97;;;;;;;;;;4956281;28;20146;-79
2023/01/20 02:32:07;;;;;;;9.68;6.05;;;;;;;;;;4965328;28;20170;-79
2023/01/20 02:34:40;;;;;;;7.32;5.88;;;;;;;;;;4968569;28;20074;-79
2023/01/20 02:37:12;;;;;;;21.15;19.15;;;;;;;;;;4974150;28;20472;-79
2023/01/20 02:39:39;;;;;;;;;;;;;;;;;;4966296;28;20129;-80
2023/01/20 02:42:10;;;;;;;8.20;5.60;;;;;;;;;;4967567;28;19930;-80
2023/01/20 02:45:01;;;;;;;7.10;6.03;;;;;;;;;;4966721;28;20457;-79
2023/01/20 02:47:34;;;;;;;6.10;5.47;;;;;;;;;;4958024;28;20521;-80
2023/01/20 02:50:13;;;;;;;8.80;5.90;;;;;;;;;;4968950;28;20050;-80
2023/01/20 02:52:50;;;;;;;7.68;6.13;;;;;;;;;;4978089;28;20167;-79
2023/01/20 02:55:23;;;;;;;8.00;6.05;;;;;;;;;;4962860;28;20060;-79
2023/01/20 02:57:54;;;;;;;8.48;6.53;;;;;;;;;;4968926;28;20412;-80
2023/01/20 03:00:27;;;;;;;7.60;6.18;;;;;;;;;;4968041;28;20047;-79
2023/01/20 03:02:56;;;;;;;9.20;6.38;;;;;;;;;;4964175;28;20141;-79
2023/01/20 03:05:29;;;;;;;9.73;7.10;;;;;;;;;;4965571;28;20039;-80
2023/01/20 03:07:58;;;;;;;9.88;6.60;;;;;;;;;;4965415;28;20542;-79
2023/01/20 03:10:26;;;;;;;10.98;6.90;;;;;;;;;;4963940;28;20050;-79
2023/01/20 03:12:56;;;;;;;9.55;6.70;;;;;;;;;;4965549;28;20050;-80
2023/01/20 03:15:26;;;;;;;8.00;6.22;;;;;;;;;;4963797;28;20082;-79
2023/01/20 03:17:54;;;;;;;7.18;6.07;;;;;;;;;;4961961;28;20043;-79
2023/01/20 03:20:21;;;;;;;11.20;6.30;;;;;;;;;;4960165;28;20055;-80
2023/01/20 03:22:49;;;;;;;8.52;6.43;;;;;;;;;;4962705;28;20121;-79
2023/01/20 03:25:17;;;;;;;11.77;7.60;;;;;;;;;;4963876;28;20039;-79
2023/01/20 03:27:44;;;;;;;10.60;7.30;;;;;;;;;;4963982;28;20099;-79
2023/01/20 03:30:12;;;;;;;8.90;7.15;;;;;;;;;;4961923;28;20047;-80
2023/01/20 03:32:41;;;;;;;8.85;6.72;;;;;;;;;;4964691;28;20130;-80
2023/01/20 03:35:09;;;;;;;9.68;7.43;;;;;;;;;;4961380;28;20118;-80
2023/01/20 03:37:36;;;;;;;8.77;7.00;;;;;;;;;;4960111;28;20116;-79
2023/01/20 03:40:04;;;;;;;7.20;6.18;;;;;;;;;;4964820;28;20057;-79
2023/01/20 03:42:34;;;;;;;8.98;6.85;;;;;;;;;;4961993;28;20070;-80
2023/01/20 03:45:16;;;;;;;12.77;7.78;;;;;;;;;;4964722;28;20134;-80
2023/01/20 03:47:52;;;;;;;7.15;5.07;;;;;;;;;;4966636;28;20047;-79
2023/01/20 03:50:35;;;;;;;9.55;6.68;;;;;;;;;;4961191;28;20173;-80
2023/01/20 03:53:02;;;;;;;10.05;6.85;;;;;;;;;;4957797;28;20509;-80
2023/01/20 03:55:33;;;;;;;10.50;7.78;;;;;;;;;;4959102;28;20065;-79
2023/01/20 03:58:06;;;;;;;9.88;6.65;;;;;;;;;;4964575;28;20093;-79
2023/01/20 04:00:35;;;;;;;10.02;7.28;;;;;;;;;;4959753;28;20145;-80
2023/01/20 04:03:05;;;;;;;10.63;7.05;;;;;;;;;;4961678;28;20162;-79
2023/01/20 04:05:33;;;;;;;10.85;7.35;;;;;;;;;;4963404;28;20128;-80
2023/01/20 04:08:03;;;;;;;9.95;7.95;;;;;;;;;;4960929;28;20047;-79
2023/01/20 04:10:31;;;;;;;9.32;6.93;;;;;;;;;;4966074;28;20102;-80
2023/01/20 04:12:58;;;;;;;13.20;8.27;;;;;;;;;;4964926;28;20057;-80
2023/01/20 04:15:26;;;;;;;10.70;7.43;;;;;;;;;;4965788;28;20043;-80
2023/01/20 04:17:56;;;;;;;8.25;6.97;;;;;;;;;;4963844;28;20050;-79
2023/01/20 04:20:24;;;;;;;10.20;8.20;;;;;;;;;;4962882;28;20362;-80
2023/01/20 04:22:57;;;;;;;9.98;7.85;;;;;;;;;;4964357;28;20042;-80
2023/01/20 04:25:26;;;;;;;9.70;6.55;;;;;;;;;;4962143;28;20544;-80
2023/01/20 04:27:54;;;;;;;9.38;8.05;;;;;;;;;;4961484;28;20784;-79
2023/01/20 04:30:21;;;;;;;7.18;6.47;;;;;;;;;;4964831;28;20082;-79
2023/01/20 04:32:48;;;;;;;9.88;7.28;;;;;;;;;;4963224;28;20051;-78
2023/01/20 04:35:17;;;;;;;8.73;7.03;;;;;;;;;;4967023;28;20050;-79
2023/01/20 04:37:45;;;;;;;11.05;7.82;;;;;;;;;;4965545;28;20078;-78
2023/01/20 04:40:13;;;;;;;11.77;7.03;;;;;;;;;;4963143;28;20039;-79
2023/01/20 04:42:40;;;;;;;8.90;6.63;;;;;;;;;;4972074;28;20047;-78
2023/01/20 04:45:07;;;;;;;8.63;6.90;;;;;;;;;;4972515;28;20042;-79
2023/01/20 04:47:35;;;;;;;11.02;7.43;;;;;;;;;;4971394;28;20069;-79
2023/01/20 04:50:02;;;;;;;8.98;7.80;;;;;;;;;;4970047;28;20053;-78
2023/01/20 04:52:29;;;;;;;13.88;9.73;;;;;;;;;;4964897;28;20053;-78
2023/01/20 04:54:57;;;;;;;10.40;7.40;;;;;;;;;;4961765;28;20502;-79
2023/01/20 04:57:25;;;;;;;10.48;8.18;;;;;;;;;;4961002;28;20553;-79
2023/01/20 04:59:52;;;;;;;10.23;7.90;;;;;;;;;;4956901;28;20051;-79
2023/01/20 05:02:20;;;;;;;12.10;8.65;;;;;;;;;;4964940;28;20060;-79
2023/01/20 05:04:47;;;;;;;9.05;7.22;;;;;;;;;;4961883;28;20066;-79
2023/01/20 05:07:15;;;;;;;11.52;8.60;;;;;;;;;;4969068;28;20046;-78
2023/01/20 05:09:42;;;;;;;12.98;8.05;;;;;;;;;;4963545;28;20051;-79
2023/01/20 05:12:10;;;;;;;11.20;7.55;;;;;;;;;;4962915;28;20948;-79
2023/01/20 05:14:37;;;;;;;9.40;7.57;;;;;;;;;;4970667;28;20580;-79
2023/01/20 05:17:04;;;;;;;12.23;7.82;;;;;;;;;;4969561;28;20402;-79
2023/01/20 05:19:32;;;;;;;8.57;6.95;;;;;;;;;;4967154;28;20054;-79
2023/01/20 05:21:59;;;;;;;11.77;8.52;;;;;;;;;;4966252;28;20039;-79
2023/01/20 05:24:27;;;;;;;10.15;7.90;;;;;;;;;;4969273;28;20047;-79
2023/01/20 05:26:54;;;;;;;22.52;20.33;;;;;;;;;;4963296;28;20118;-79
2023/01/20 05:29:21;;;;;;;10.52;8.00;;;;;;;;;;4965905;28;20050;-79
2023/01/20 05:31:49;;;;;;;12.55;7.70;;;;;;;;;;4966219;28;20055;-79
2023/01/20 05:34:16;;;;;;;10.05;7.60;;;;;;;;;;4964755;28;20509;-79
2023/01/20 05:36:43;;;;;;;10.80;9.73;;;;;;;;;;4965867;28;20051;-79
2023/01/20 05:39:11;;;;;;;11.23;10.13;;;;;;;;;;4964409;28;20552;-79
2023/01/20 05:41:39;;;;;;;15.45;13.70;;;;;;;;;;4968878;28;20168;-79
2023/01/20 05:44:06;;;;;;;12.57;9.00;;;;;;;;;;4966314;28;20042;-79
2023/01/20 05:46:33;;;;;;;10.60;9.55;;;;;;;;;;4968784;28;20069;-79
2023/01/20 05:49:01;;;;;;;23.70;21.33;;;;;;;;;;4967349;28;20508;-79
2023/01/20 05:51:29;;;;;;;8.98;7.90;;;;;;;;;;4967772;28;20054;-79
2023/01/20 05:53:56;;;;;;;9.88;7.55;;;;;;;;;;4966490;28;20401;-79
2023/01/20 05:56:24;;;;;;;10.70;7.65;;;;;;;;;;4959449;28;20046;-79
2023/01/20 05:58:55;;;;;;;12.57;10.52;;;;;;;;;;4958399;28;20412;-79
2023/01/20 06:01:22;;;;;;;12.87;8.93;;;;;;;;;;4955242;28;20047;-79
2023/01/20 06:03:50;;;;;;;11.77;8.30;;;;;;;;;;4962115;28;20051;-78
2023/01/20 06:06:17;;;;;;;12.20;8.73;;;;;;;;;;4962327;28;20101;-80
2023/01/20 06:08:45;;;;;;;16.75;8.75;;;;;;;;;;4957451;28;20050;-79
2023/01/20 06:11:13;;;;;;;17.42;10.43;;;;;;;;;;4962168;28;20460;-79
2023/01/20 06:13:41;;;;;;;11.90;8.93;;;;;;;;;;4958436;28;20075;-79
2023/01/20 06:16:08;;;;;;;11.80;8.80;;;;;;;;;;4957257;28;20074;-79
2023/01/20 06:18:35;;;;;;;42.17;38.17;;;;;;;;;;4963598;28;20402;-80
2023/01/20 06:21:03;;;;;;;12.63;8.45;;;;;;;;;;4964062;28;20474;-79
2023/01/20 06:23:31;;;;;;;12.77;8.68;;;;;;;;;;4961715;28;20042;-79
2023/01/20 06:26:03;;;;;;;12.68;8.73;;;;;;;;;;4962540;28;20409;-79
2023/01/20 06:28:31;;;;;;;10.90;8.25;;;;;;;;;;4964818;28;20043;-79
2023/01/20 06:30:59;;;;;;;11.25;8.85;;;;;;;;;;4951611;28;20051;-79
2023/01/20 06:33:27;;;;;;;14.65;10.05;;;;;;;;;;4958456;28;20050;-79
2023/01/20 06:35:55;;;;;;;10.93;8.15;;;;;;;;;;4967708;28;20078;-79
2023/01/20 06:38:24;;;;;;;27.95;24.30;;;;;;;;;;4966099;28;20424;-79
2023/01/20 06:40:56;;;;;;;14.82;13.30;;;;;;;;;;4965141;28;20489;-80
2023/01/20 06:43:23;;;;;;;10.68;8.98;;;;;;;;;;4963380;28;20039;-79
2023/01/20 06:45:50;;;;;;;10.52;8.48;;;;;;;;;;4967821;28;20086;-80
2023/01/20 06:48:18;;;;;;;10.93;8.95;;;;;;;;;;4959803;28;20043;-79
2023/01/20 06:50:45;;;;;;;16.13;9.30;;;;;;;;;;4965346;28;20050;-80
2023/01/20 06:53:12;;;;;;;12.93;10.55;;;;;;;;;;4964395;28;20390;-80
2023/01/20 06:55:40;;;;;;;10.82;8.38;;;;;;;;;;4967951;28;20070;-80
2023/01/20 06:58:08;;;;;;;15.77;10.15;;;;;;;;;;4964222;28;20382;-80
2023/01/20 07:00:35;;;;;;;12.18;8.63;;;;;;;;;;4965381;28;20365;-80
2023/01/20 07:03:02;;;;;;;12.48;9.07;;;;;;;;;;4967774;28;20055;-80
2023/01/20 07:05:30;;;;;;;10.20;8.55;;;;;;;;;;4966927;28;20071;-80
2023/01/20 07:07:57;;;;;;;10.80;8.40;;;;;;;;;;4956590;28;20054;-80
2023/01/20 07:10:25;;;;;;;13.38;9.48;;;;;;;;;;4962893;28;20051;-80
2023/01/20 07:12:52;;;;;;;12.02;8.88;;;;;;;;;;4965891;28;20069;-80
2023/01/20 07:15:20;;;;;;;13.95;9.90;;;;;;;;;;4963803;28;20053;-80
2023/01/20 07:17:53;;;;;;;13.77;9.43;;;;;;;;;;4964025;28;20108;-80
2023/01/20 07:20:20;;;;;;;12.65;9.52;;;;;;;;;;4965374;28;20031;-80
2023/01/20 07:22:48;;;;;;;14.70;10.93;;;;;;;;;;4968748;28;20070;-80
2023/01/20 07:25:15;;;;;;;18.20;10.63;;;;;;;;;;4967313;28;20312;-81
2023/01/20 07:27:43;;;;;;;13.13;9.95;;;;;;;;;;4972064;28;20047;-81
2023/01/20 07:30:11;;;;;;;19.98;15.27;;;;;;;;;;4976771;28;20129;-80
2023/01/20 07:32:38;;;;;;;15.55;10.63;;;;;;;;;;4967325;28;20047;-80
2023/01/20 07:35:06;;;;;;;14.90;10.13;;;;;;;;;;4969647;28;20051;-80
2023/01/20 07:37:34;;;;;;;14.98;10.68;;;;;;;;;;4964112;28;20058;-80
2023/01/20 07:40:01;;;;;;;15.00;11.30;;;;;;;;;;4965234;28;20159;-80
2023/01/20 07:42:28;;;;;;;15.65;11.38;;;;;;;;;;4967384;28;20047;-80
2023/01/20 07:44:56;;;;;;;18.75;16.95;;;;;;;;;;4965129;28;20453;-79
2023/01/20 07:47:23;;;;;;;13.07;10.10;;;;;;;;;;4966886;28;20138;-81
2023/01/20 07:49:50;;;;;;;12.60;9.20;;;;;;;;;;4969807;28;20078;-79
2023/01/20 07:52:18;;;;;;;18.30;11.73;;;;;;;;;;4963247;28;20509;-80
2023/01/20 07:54:45;;;;;;;19.58;12.02;;;;;;;;;;4964165;28;20421;-80
2023/01/20 07:57:13;;;;;;;14.10;10.43;;;;;;;;;;4959447;28;20058;-81
2023/01/20 07:59:40;;;;;;;15.07;11.27;;;;;;;;;;4964169;28;20049;-80
2023/01/20 08:02:08;;;;;;;16.83;12.60;;;;;;;;;;4962343;28;20047;-81
2023/01/20 08:04:36;;;;;;;14.98;12.88;;;;;;;;;;4962250;28;20047;-80
2023/01/20 08:07:05;;;;;;;13.57;11.27;;;;;;;;;;4965449;28;20151;-82
2023/01/20 08:09:32;;;;;;;19.40;13.95;;;;;;;;;;4966085;28;20051;-81
2023/01/20 08:12:01;;;;;;;17.88;11.70;;;;;;;;;;4965584;28;20417;-80
2023/01/20 08:14:28;;;;;;;16.77;11.38;;;;;;;;;;4966718;28;20062;-80
2023/01/20 08:16:55;;;;;;;18.48;11.95;;;;;;;;;;4957333;28;20054;-80
2023/01/20 08:19:23;;;;;;;14.90;11.27;;;;;;;;;;4963487;28;20043;-79
2023/01/20 08:21:51;;;;;;;17.38;11.32;;;;;;;;;;4962997;28;20073;-81
2023/01/20 08:24:18;;;;;;;15.20;11.05;;;;;;;;;;4954857;28;20043;-81
2023/01/20 08:26:45;;;;;;;20.23;12.68;;;;;;;;;;4952021;28;20158;-80
2023/01/20 08:29:13;;;;;;;20.45;13.60;;;;;;;;;;4964100;28;20592;-80
2023/01/20 08:31:41;;;;;;;17.13;12.93;;;;;;;;;;4969367;28;20660;-80
2023/01/20 08:34:08;;;;;;;17.38;13.90;;;;;;;;;;4959516;28;20059;-82
2023/01/20 08:36:39;;;;;;;20.65;16.65;;;;;;;;;;4968472;28;20061;-80
2023/01/20 08:39:08;;;;;;;22.70;15.00;;;;;;;;;;4971628;28;20493;-80
2023/01/20 08:41:37;;;;;;;17.08;15.07;;;;;;;;;;4972945;28;20302;-80
2023/01/20 08:44:05;;;;;;;14.07;10.95;;;;;;;;;;4957904;28;21540;-81
2023/01/20 08:46:33;;;;;;;17.20;11.55;;;;;;;;;;4961214;28;20047;-80
2023/01/20 08:49:00;;;;;;;14.15;10.63;;;;;;;;;;4964116;28;20063;-81
2023/01/20 08:51:28;;;;;;;21.75;12.23;;;;;;;;;;4967253;28;20057;-81
2023/01/20 08:53:56;;;;;;;16.85;11.27;;;;;;;;;;4970785;28;20053;-81
2023/01/20 08:56:24;;;;;;;18.27;11.48;;;;;;;;;;4972703;28;20528;-80
2023/01/20 08:58:52;;;;;;;23.25;13.40;;;;;;;;;;4973627;28;20058;-80
2023/01/20 09:01:21;;;;;;;18.13;11.90;;;;;;;;;;4977778;28;20462;-81
2023/01/20 09:03:49;;;;;;;17.55;14.60;;;;;;;;;;4973844;28;20793;-82
2023/01/20 09:06:36;;;;;;;18.70;12.70;;;;;;;;;;4974914;28;20050;-80
2023/01/20 09:09:04;;;;;;;19.40;13.65;;;;;;;;;;4975439;28;20086;-81
2023/01/20 09:11:32;;;;;;;17.15;11.77;;;;;;;;;;4973779;28;20694;-80
2023/01/20 09:13:59;;;;;;;16.45;12.27;;;;;;;;;;4977601;28;20073;-80
2023/01/20 09:16:27;;;;;;;17.13;12.23;;;;;;;;;;4977072;28;20486;-80
2023/01/20 09:18:54;;;;;;;17.13;12.68;;;;;;;;;;4974837;28;20153;-80
2023/01/20 09:21:24;;;;;;;19.73;12.32;;;;;;;;;;4980989;28;20402;-80
2023/01/20 09:23:51;;;;;;;16.23;11.82;;;;;;;;;;4981278;28;20750;-78
2023/01/20 09:26:19;;;;;;;21.05;13.25;;;;;;;;;;4969709;28;20151;-79
2023/01/20 09:29:07;;;;;;;14.65;11.77;;;;;;;;;;4970020;28;20485;-78
2023/01/20 09:31:37;;;;;;;47.28;40.92;;;;;;;;;;4969142;28;20088;-79
2023/01/20 09:34:04;;;;;;;16.48;11.95;;;;;;;;;;4966627;28;20754;-78
2023/01/20 09:36:32;;;;;;;21.73;19.50;;;;;;;;;;4964383;28;20082;-78
2023/01/20 09:44:56;;;;;;;21.23;12.80;;;;;;;;;;4908930;29;20044;-79
2023/01/20 09:47:24;;;;;;;18.98;11.82;;;;;;;;;;4907964;29;20056;-79
2023/01/20 09:55:27;;;;;;;12.18;9.60;;;;;;;;;;4914799;29;20465;-78
2023/01/20 09:57:59;;;;;;;24.08;21.80;;;;;;;;;;4951427;28;20142;-80
2023/01/20 10:00:30;;;;;;;14.90;11.95;;;;;;;;;;4951159;28;20142;-78
2023/01/20 10:03:17;;;;;;;39.88;34.95;;;;;;;;;;4949948;28;20045;-78
2023/01/20 10:05:47;;;;;;;18.23;12.65;;;;;;;;;;4951199;29;20470;-78
2023/01/20 10:08:26;;;;;;;15.27;11.65;;;;;;;;;;4951645;29;20062;-78
2023/01/20 10:10:58;;;;;;;16.60;11.63;;;;;;;;;;4951967;29;20129;-79
2023/01/20 10:13:31;;;;;;;16.80;11.93;;;;;;;;;;4951034;28;20524;-78
2023/01/20 10:16:01;;;;;;;17.95;11.65;;;;;;;;;;4951161;28;20075;-78
2023/01/20 10:18:28;;;;;;;14.60;11.40;;;;;;;;;;4951282;29;20102;-79
2023/01/20 10:21:06;;;;;;;18.70;11.82;;;;;;;;;;4965132;28;20039;-78
2023/01/20 10:23:39;;;;;;;16.10;12.18;;;;;;;;;;4961189;28;20050;-79
2023/01/20 10:26:15;;;;;;;19.65;11.38;;;;;;;;;;4970405;28;20549;-79
2023/01/20 10:28:51;;;;;;;17.50;12.90;;;;;;;;;;4970157;28;20492;-79
2023/01/20 10:31:22;;;;;;;19.25;12.25;;;;;;;;;;4969845;28;20360;-78
2023/01/20 10:33:52;;;;;;;15.98;14.27;;;;;;;;;;4969611;28;20078;-78
2023/01/20 10:36:30;;;;;;;18.85;12.65;;;;;;;;;;4968982;28;20051;-78
2023/01/20 10:39:01;;;;;;;17.40;12.15;;;;;;;;;;4969681;28;20058;-78
2023/01/20 10:41:31;;;;;;;31.60;21.27;;;;;;;;;;4970086;28;20043;-79
2023/01/20 10:43:59;;;;;;;18.48;13.40;;;;;;;;;;4969530;28;20137;-78
2023/01/20 10:46:35;;;;;;;17.33;11.60;;;;;;;;;;4970029;28;20045;-78
2023/01/20 10:49:29;;;;;;;40.92;34.58;;;;;;;;;;4970155;28;20126;-78
2023/01/20 10:52:14;;;;;;;23.98;20.52;;;;;;;;;;4954110;28;20066;-78
2023/01/20 10:55:14;;;;;;;14.82;12.00;;;;;;;;;;4969951;28;20055;-79
2023/01/20 10:57:42;;;;;;;17.05;12.10;;;;;;;;;;4948536;28;20102;-79
2023/01/20 11:00:30;;;;;;;16.67;12.00;;;;;;;;;;4971046;28;20042;-80
2023/01/20 11:02:59;;;;;;;16.58;11.32;;;;;;;;;;4973197;28;20054;-79
2023/01/20 11:05:31;;;;;;;18.60;13.50;;;;;;;;;;4972809;28;20043;-79
2023/01/20 11:07:59;;;;;;;18.75;11.32;;;;;;;;;;4972697;28;20046;-79
2023/01/20 11:10:28;;;;;;;15.68;12.45;;;;;;;;;;4972696;28;20057;-80
2023/01/20 11:12:58;;;;;;;16.65;12.55;;;;;;;;;;4971429;28;20086;-80
2023/01/20 11:15:28;;;;;;;19.48;11.75;;;;;;;;;;4973573;28;20054;-79
2023/01/20 11:18:14;;;;;;;20.20;17.55;;;;;;;;;;4971905;28;20047;-79
2023/01/20 11:20:44;;;;;;;17.35;12.82;;;;;;;;;;4972606;28;20421;-79
2023/01/20 11:23:31;;;;;;;17.00;12.00;;;;;;;;;;4971778;28;20053;-79
2023/01/20 11:26:10;;;;;;;17.02;13.23;;;;;;;;;;4970400;28;20126;-80
2023/01/20 11:28:46;;;;;;;18.98;13.10;;;;;;;;;;4973027;28;20099;-80
2023/01/20 11:31:14;;;;;;;19.77;12.57;;;;;;;;;;4976054;28;20054;-79
2023/01/20 11:33:59;;;;;;;17.05;12.55;;;;;;;;;;4975584;28;20593;-80
2023/01/20 11:36:26;;;;;;;20.85;11.55;;;;;;;;;;4971189;28;20114;-81
2023/01/20 11:38:55;;;;;;;21.70;14.45;;;;;;;;;;4969423;28;20054;-81
2023/01/20 11:41:24;;;;;;;18.23;13.15;;;;;;;;;;4969640;28;20047;-81
2023/01/20 11:43:55;;;;;;;17.08;12.73;;;;;;;;;;4970548;28;20065;-80
2023/01/20 11:46:24;;;;;;;18.08;12.27;;;;;;;;;;4970263;28;20035;-80
2023/01/20 11:49:10;;;;;;;20.50;12.48;;;;;;;;;;4972239;28;20042;-80
2023/01/20 11:51:43;;;;;;;15.68;11.02;;;;;;;;;;4983017;28;20058;-82
2023/01/20 11:54:15;;;;;;;15.85;11.60;;;;;;;;;;4973563;28;20153;-81
2023/01/20 11:56:45;;;;;;;17.70;12.85;;;;;;;;;;4975812;28;20385;-80
2023/01/20 11:59:21;;;;;;;21.08;14.65;;;;;;;;;;4976457;28;20046;-80
2023/01/20 12:01:50;;;;;;;17.00;12.82;;;;;;;;;;4977012;28;20459;-80
2023/01/20 12:04:36;;;;;;;17.83;11.75;;;;;;;;;;4978355;28;20049;-81
2023/01/20 12:07:27;;;;;;;14.35;11.07;;;;;;;;;;4981125;28;20046;-81
2023/01/20 12:10:03;;;;;;;13.35;11.05;;;;;;;;;;4974775;28;20493;-81
2023/01/20 12:12:39;;;;;;;14.55;11.35;;;;;;;;;;4981759;28;20073;-81
2023/01/20 12:15:13;;;;;;;21.25;18.23;;;;;;;;;;4975535;28;20050;-83
2023/01/20 12:17:58;;;;;;;16.15;11.15;;;;;;;;;;4974540;28;20051;-80
2023/01/20 12:20:39;;;;;;;16.92;12.38;;;;;;;;;;4977811;28;20105;-80
2023/01/20 12:23:28;;;;;;;17.23;13.30;;;;;;;;;;4977797;28;20039;-81
2023/01/20 12:26:06;;;;;;;27.52;24.67;;;;;;;;;;4981524;28;20055;-81
2023/01/20 12:28:33;;;;;;;20.27;18.17;;;;;;;;;;4983552;28;20043;-82
2023/01/20 12:31:01;;;;;;;17.60;12.95;;;;;;;;;;4982447;28;20071;-81
2023/01/20 12:33:37;;;;;;;39.40;33.63;;;;;;;;;;4972826;28;20405;-81
2023/01/20 12:36:11;;;;;;;25.40;22.55;;;;;;;;;;4983039;28;20051;-81
2023/01/20 12:38:49;;;;;;;18.13;13.02;;;;;;;;;;4981988;28;20071;-81
2023/01/20 12:41:34;;;;;;;21.42;19.55;;;;;;;;;;4980906;28;20078;-81
2023/01/20 12:44:20;;;;;;;19.42;13.73;;;;;;;;;;4978481;28;20465;-81
2023/01/20 12:46:51;;;;;;;21.65;14.50;;;;;;;;;;4975118;28;20189;-81
2023/01/20 12:49:29;;;;;;;29.00;26.23;;;;;;;;;;4971308;28;20441;-81
2023/01/20 12:51:56;;;;;;;20.00;13.77;;;;;;;;;;4976077;28;20055;-82
2023/01/20 12:54:39;;;;;;;15.57;13.80;;;;;;;;;;4978195;28;20062;-82
2023/01/20 12:57:35;;;;;;;23.38;14.65;;;;;;;;;;4974736;28;20061;-82
2023/01/20 13:00:03;;;;;;;29.50;26.50;;;;;;;;;;4956707;28;20106;-82
2023/01/20 13:02:51;;;;;;;24.63;21.80;;;;;;;;;;4976201;28;20046;-82
2023/01/20 13:05:28;;;;;;;22.77;16.00;;;;;;;;;;4974050;28;20043;-82
2023/01/20 13:08:35;;;;;;;23.80;17.75;;;;;;;;;;4969760;28;20047;-82
2023/01/20 13:11:15;;;;;;;33.55;30.27;;;;;;;;;;4895473;29;20049;-82
2023/01/20 13:13:59;;;;;;;24.00;18.02;;;;;;;;;;4900537;29;20085;-81
2023/01/20 13:16:36;;;;;;;32.53;29.50;;;;;;;;;;4955803;28;20054;-82
2023/01/20 13:19:06;;;;;;;23.23;15.73;;;;;;;;;;4991955;28;20050;-82
2023/01/20 13:21:34;;;;;;;21.17;16.88;;;;;;;;;;4986758;28;20045;-82
2023/01/20 13:24:02;;;;;;;19.92;15.57;;;;;;;;;;4979579;28;20059;-81
2023/01/20 13:26:30;;;;;;;24.67;21.33;;;;;;;;;;4978644;28;20042;-81
2023/01/20 13:29:01;;;;;;;22.75;17.55;;;;;;;;;;4981669;28;20047;-81
2023/01/20 13:31:28;;;;;;;21.23;17.73;;;;;;;;;;4982387;28;20105;-82
2023/01/20 13:34:16;;;;;;;38.35;33.55;;;;;;;;;;4982147;28;20316;-82
2023/01/20 13:37:03;;;;;;;21.92;16.60;;;;;;;;;;4983782;28;20058;-82
2023/01/20 13:39:40;;;;;;;20.42;15.52;;;;;;;;;;4982489;28;20481;-82
2023/01/20 13:42:26;;;;;;;34.05;30.60;;;;;;;;;;4983143;28;20054;-82
2023/01/20 13:45:12;;;;;;;28.27;25.27;;;;;;;;;;4982734;28;20055;-81
2023/01/20 13:47:46;;;;;;;21.02;16.40;;;;;;;;;;4982083;28;20050;-82
2023/01/20 13:50:32;;;;;;;23.58;17.83;;;;;;;;;;4982621;28;20056;-81
2023/01/20 13:53:00;;;;;;;21.90;15.93;;;;;;;;;;4981708;28;20411;-81
2023/01/20 13:55:47;;;;;;;30.75;27.60;;;;;;;;;;4981614;28;20492;-82
2023/01/20 13:58:18;;;;;;;29.08;24.77;;;;;;;;;;4973180;28;20066;-82
2023/01/20 14:00:47;;;;;;;21.17;14.43;;;;;;;;;;4982958;28;20078;-83
2023/01/20 14:03:22;;;;;;;22.75;15.05;;;;;;;;;;4982758;28;20050;-82
2023/01/20 14:05:50;;;;;;;22.25;15.13;;;;;;;;;;4982733;28;20070;-81
2023/01/20 14:08:18;;;;;;;26.50;16.75;;;;;;;;;;4982726;28;20051;-82
2023/01/20 14:11:02;;;;;;;21.98;14.55;;;;;;;;;;4983310;28;20061;-82
2023/01/20 14:13:29;;;;;;;21.95;15.30;;;;;;;;;;4981287;28;20042;-82
2023/01/20 14:15:56;;;;;;;23.98;15.90;;;;;;;;;;4982673;28;20065;-82
2023/01/20 14:18:25;;;;;;;20.85;14.77;;;;;;;;;;4981527;28;20047;-81
2023/01/20 14:21:04;;;;;;;20.35;15.00;;;;;;;;;;4982024;28;20409;-81
2023/01/20 14:23:35;;;;;;;21.33;15.05;;;;;;;;;;4979829;28;20043;-82
2023/01/20 14:26:02;;;;;;;22.25;15.73;;;;;;;;;;4981914;28;20319;-81
2023/01/20 14:28:30;;;;;;;33.42;24.67;;;;;;;;;;4983688;28;20054;-82
2023/01/20 14:31:06;;;;;;;24.38;16.52;;;;;;;;;;4985425;28;20053;-82
2023/01/20 14:33:34;;;;;;;22.25;14.55;;;;;;;;;;4977537;28;20050;-82
2023/01/20 14:36:05;;;;;;;22.30;17.15;;;;;;;;;;4975982;28;20061;-82
2023/01/20 14:38:32;;;;;;;20.40;15.53;;;;;;;;;;4975493;28;20133;-81
2023/01/20 14:41:03;;;;;;;19.25;14.50;;;;;;;;;;4975946;28;20333;-83
2023/01/20 14:43:31;;;;;;;19.13;15.18;;;;;;;;;;4975739;28;20467;-82
2023/01/20 14:45:59;;;;;;;21.55;15.93;;;;;;;;;;4977376;28;20046;-82
2023/01/20 14:48:26;;;;;;;21.80;15.95;;;;;;;;;;4977346;28;20051;-83
2023/01/20 14:51:02;;;;;;;22.33;15.25;;;;;;;;;;4974645;28;20050;-82
2023/01/20 14:53:30;;;;;;;26.58;16.50;;;;;;;;;;4971056;28;20050;-83
2023/01/20 14:56:02;;;;;;;17.98;13.43;;;;;;;;;;4974689;28;20043;-82
2023/01/20 14:58:30;;;;;;;19.48;13.95;;;;;;;;;;4974341;28;20058;-82
2023/01/20 15:01:02;;;;;;;53.50;47.30;;;;;;;;;;4975090;28;20556;-82